Time;durP1;ratioP1;P1;durP2;ratioP2;P2;SDS_P1;SDS_P2;PMS_P1;PMS_P2;Temp;Humidity;BMP_temperature;BMP_pressure;BME280_temperature;BME280_humidity;BME280_pressure;Samples;Min_cycle;Max_cycle;Signal;HPM_P1;HPM_P2
2021/11/10 00:00:56;;;;;;;13.18;3.95;;;;;;;;;;4940617;29;20028;-76
2021/11/10 00:03:22;;;;;;;10.43;3.90;;;;;;;;;;4940182;29;20027;-76
2021/11/10 00:05:48;;;;;;;14.48;4.35;;;;;;;;;;4939910;29;20055;-75
2021/11/10 00:08:15;;;;;;;11.50;4.57;;;;;;;;;;4940186;29;20031;-76
2021/11/10 00:10:41;;;;;;;17.08;4.85;;;;;;;;;;4941333;29;20471;-76
2021/11/10 00:13:19;;;;;;;12.80;5.13;;;;;;;;;;4940829;29;20036;-77
2021/11/10 00:15:46;;;;;;;14.02;4.47;;;;;;;;;;4940725;29;20027;-76
2021/11/10 00:18:13;;;;;;;15.20;4.65;;;;;;;;;;4940998;29;20045;-73
2021/11/10 00:20:39;;;;;;;12.32;3.97;;;;;;;;;;4940657;29;20031;-78
2021/11/10 00:23:05;;;;;;;12.65;5.57;;;;;;;;;;4940826;29;20107;-76
2021/11/10 00:25:31;;;;;;;18.35;8.90;;;;;;;;;;4940891;29;20020;-76
2021/11/10 00:27:57;;;;;;;20.30;11.95;;;;;;;;;;4940288;29;20062;-75
2021/11/10 00:30:23;;;;;;;25.13;17.35;;;;;;;;;;4939864;29;20084;-75
2021/11/10 00:32:49;;;;;;;39.08;23.15;;;;;;;;;;4940236;29;20023;-75
2021/11/10 00:35:15;;;;;;;25.98;19.13;;;;;;;;;;4923241;29;20054;-74
2021/11/10 00:37:41;;;;;;;25.52;16.10;;;;;;;;;;4939674;29;20035;-74
2021/11/10 00:40:08;;;;;;;24.92;14.10;;;;;;;;;;4940103;29;20558;-75
2021/11/10 00:42:34;;;;;;;25.98;12.63;;;;;;;;;;4922564;29;20479;-76
2021/11/10 00:45:00;;;;;;;19.50;8.93;;;;;;;;;;4940280;29;20060;-73
2021/11/10 00:47:26;;;;;;;17.77;7.60;;;;;;;;;;4939211;29;20036;-75
2021/11/10 00:49:52;;;;;;;12.40;5.72;;;;;;;;;;4939693;29;20483;-74
2021/11/10 00:52:18;;;;;;;15.63;4.85;;;;;;;;;;4938755;29;20079;-75
2021/11/10 00:54:44;;;;;;;13.77;3.92;;;;;;;;;;4938778;29;20562;-76
2021/11/10 00:57:10;;;;;;;11.10;5.05;;;;;;;;;;4937843;29;20031;-75
2021/11/10 00:59:36;;;;;;;9.10;3.72;;;;;;;;;;4938276;29;20019;-75
2021/11/10 01:02:03;;;;;;;7.55;3.55;;;;;;;;;;4938022;29;20045;-75
2021/11/10 01:04:29;;;;;;;9.80;4.38;;;;;;;;;;4938185;29;20078;-75
2021/11/10 01:06:55;;;;;;;14.32;4.70;;;;;;;;;;4938468;29;20042;-76
2021/11/10 01:09:21;;;;;;;9.00;4.07;;;;;;;;;;4937882;29;20065;-73
2021/11/10 01:11:48;;;;;;;10.85;4.40;;;;;;;;;;4938169;29;20115;-74
2021/11/10 01:14:15;;;;;;;12.18;4.43;;;;;;;;;;4938943;29;20028;-74
2021/11/10 01:16:41;;;;;;;9.60;3.28;;;;;;;;;;4921226;29;20034;-74
2021/11/10 01:19:08;;;;;;;11.85;4.15;;;;;;;;;;4938687;29;20120;-74
2021/11/10 01:21:34;;;;;;;9.18;4.20;;;;;;;;;;4923246;29;20423;-76
2021/11/10 01:24:00;;;;;;;13.43;4.38;;;;;;;;;;4921159;29;20034;-74
2021/11/10 01:26:27;;;;;;;8.43;4.22;;;;;;;;;;4937195;29;20043;-74
2021/11/10 01:28:53;;;;;;;18.70;5.80;;;;;;;;;;4938042;29;20028;-75
2021/11/10 01:31:20;;;;;;;6.28;3.60;;;;;;;;;;4938329;29;20038;-76
2021/11/10 01:33:46;;;;;;;9.02;3.53;;;;;;;;;;4939309;29;20054;-74
2021/11/10 01:36:12;;;;;;;13.50;4.20;;;;;;;;;;4938680;29;20110;-74
2021/11/10 01:38:38;;;;;;;10.80;3.97;;;;;;;;;;4939397;29;20031;-74
2021/11/10 01:41:05;;;;;;;9.57;4.18;;;;;;;;;;4939962;29;20144;-75
2021/11/10 01:43:32;;;;;;;10.32;4.13;;;;;;;;;;4939672;29;20036;-74
2021/11/10 01:45:58;;;;;;;10.88;3.88;;;;;;;;;;4939923;29;20040;-73
2021/11/10 01:48:25;;;;;;;11.20;4.18;;;;;;;;;;4939979;29;20035;-74
2021/11/10 01:50:51;;;;;;;9.80;4.28;;;;;;;;;;4941961;29;20038;-75
2021/11/10 01:53:17;;;;;;;14.88;4.78;;;;;;;;;;4944501;29;20055;-75
2021/11/10 01:55:44;;;;;;;10.70;4.38;;;;;;;;;;4943937;29;20099;-74
2021/11/10 01:58:11;;;;;;;8.02;3.78;;;;;;;;;;4944473;29;20027;-76
2021/11/10 02:00:38;;;;;;;13.00;5.75;;;;;;;;;;4945239;29;20054;-75
2021/11/10 02:03:05;;;;;;;9.15;4.45;;;;;;;;;;4946169;29;20031;-73
2021/11/10 02:05:31;;;;;;;7.80;4.18;;;;;;;;;;4948072;29;20040;-73
2021/11/10 02:07:58;;;;;;;9.38;3.53;;;;;;;;;;4947507;29;20030;-72
2021/11/10 02:10:25;;;;;;;11.43;4.38;;;;;;;;;;4947261;29;20058;-74
2021/11/10 02:12:52;;;;;;;19.70;4.78;;;;;;;;;;4947477;29;20052;-74
2021/11/10 02:15:19;;;;;;;16.85;6.18;;;;;;;;;;4944473;29;20032;-74
2021/11/10 02:17:50;;;;;;;10.93;3.65;;;;;;;;;;4942971;29;20024;-74
2021/11/10 02:20:16;;;;;;;10.82;3.97;;;;;;;;;;4942761;29;20034;-77
2021/11/10 02:22:42;;;;;;;11.85;4.53;;;;;;;;;;4943397;29;20027;-76
2021/11/10 02:25:09;;;;;;;8.43;3.90;;;;;;;;;;4942875;29;20079;-74
2021/11/10 02:27:36;;;;;;;10.50;3.97;;;;;;;;;;4942370;29;20028;-74
2021/11/10 02:30:06;;;;;;;14.10;4.30;;;;;;;;;;4943035;29;20034;-73
2021/11/10 02:32:33;;;;;;;15.90;4.78;;;;;;;;;;4943601;29;20028;-74
2021/11/10 02:34:59;;;;;;;9.90;4.22;;;;;;;;;;4942532;29;20165;-75
2021/11/10 02:37:25;;;;;;;12.05;4.47;;;;;;;;;;4941453;29;20554;-74
2021/11/10 02:39:52;;;;;;;14.15;5.18;;;;;;;;;;4942321;29;20031;-73
2021/11/10 02:42:18;;;;;;;11.25;5.93;;;;;;;;;;4925956;29;20036;-73
2021/11/10 02:44:47;;;;;;;17.10;5.65;;;;;;;;;;4925628;29;20038;-74
2021/11/10 02:47:13;;;;;;;15.13;4.75;;;;;;;;;;4941800;29;20043;-74
2021/11/10 02:49:39;;;;;;;10.18;4.30;;;;;;;;;;4942256;29;20027;-73
2021/11/10 02:52:07;;;;;;;11.70;4.90;;;;;;;;;;4942506;29;20056;-72
2021/11/10 02:54:36;;;;;;;11.35;5.93;;;;;;;;;;4942430;29;20027;-74
2021/11/10 02:57:03;;;;;;;9.00;3.80;;;;;;;;;;4942753;29;20060;-73
2021/11/10 02:59:30;;;;;;;11.57;4.85;;;;;;;;;;4924806;29;20043;-74
2021/11/10 03:01:57;;;;;;;13.25;5.00;;;;;;;;;;4942292;29;20055;-76
2021/11/10 03:04:24;;;;;;;8.73;4.15;;;;;;;;;;4942527;29;20036;-75
2021/11/10 03:06:51;;;;;;;9.95;5.22;;;;;;;;;;4943043;29;20024;-73
2021/11/10 03:09:18;;;;;;;9.95;4.75;;;;;;;;;;4942651;29;20443;-75
2021/11/10 03:11:44;;;;;;;13.07;4.45;;;;;;;;;;4941688;29;20024;-74
2021/11/10 03:14:10;;;;;;;13.85;5.07;;;;;;;;;;4942187;29;20103;-75
2021/11/10 03:16:36;;;;;;;8.63;5.82;;;;;;;;;;4942965;29;20118;-74
2021/11/10 03:19:02;;;;;;;13.35;4.97;;;;;;;;;;4942584;29;20043;-74
2021/11/10 03:21:28;;;;;;;11.10;4.68;;;;;;;;;;4941442;29;20451;-74
2021/11/10 03:23:54;;;;;;;9.65;4.20;;;;;;;;;;4941551;29;20027;-73
2021/11/10 03:26:22;;;;;;;14.15;4.55;;;;;;;;;;4941974;29;20039;-74
2021/11/10 03:28:48;;;;;;;11.32;4.53;;;;;;;;;;4942192;29;20028;-74
2021/11/10 03:31:14;;;;;;;10.88;4.72;;;;;;;;;;4941996;29;20020;-74
2021/11/10 03:33:40;;;;;;;14.93;4.50;;;;;;;;;;4942204;29;20024;-73
2021/11/10 03:36:06;;;;;;;9.98;4.65;;;;;;;;;;4924477;29;20039;-74
2021/11/10 03:38:32;;;;;;;14.73;4.95;;;;;;;;;;4941244;29;20039;-73
2021/11/10 03:40:59;;;;;;;8.63;4.53;;;;;;;;;;4940781;29;20039;-75
2021/11/10 03:43:25;;;;;;;12.10;4.35;;;;;;;;;;4941124;29;20039;-75
2021/11/10 03:45:51;;;;;;;9.35;4.30;;;;;;;;;;4940872;29;20027;-75
2021/11/10 03:48:17;;;;;;;10.10;4.55;;;;;;;;;;4939937;29;20051;-75
2021/11/10 03:50:44;;;;;;;14.40;4.45;;;;;;;;;;4939380;29;20038;-75
2021/11/10 03:53:10;;;;;;;9.77;4.07;;;;;;;;;;4939212;29;20036;-74
2021/11/10 03:55:37;;;;;;;13.82;5.50;;;;;;;;;;4940300;29;20048;-74
2021/11/10 03:58:06;;;;;;;13.93;4.78;;;;;;;;;;4940564;29;20394;-74
2021/11/10 04:00:32;;;;;;;12.05;4.00;;;;;;;;;;4940862;29;20031;-76
2021/11/10 04:02:58;;;;;;;7.38;3.97;;;;;;;;;;4940863;29;20095;-74
2021/11/10 04:05:25;;;;;;;7.05;3.63;;;;;;;;;;4940764;29;20075;-75
2021/11/10 04:07:51;;;;;;;6.80;4.28;;;;;;;;;;4940958;29;20102;-75
2021/11/10 04:10:17;;;;;;;9.75;4.63;;;;;;;;;;4941033;29;20037;-75
2021/11/10 04:12:43;;;;;;;8.70;3.70;;;;;;;;;;4939888;29;20059;-74
2021/11/10 04:15:09;;;;;;;11.30;4.50;;;;;;;;;;4940769;29;20028;-73
2021/11/10 04:17:35;;;;;;;8.88;4.55;;;;;;;;;;4940197;29;20024;-73
2021/11/10 04:20:02;;;;;;;12.30;4.80;;;;;;;;;;4940663;29;20027;-76
2021/11/10 04:22:28;;;;;;;19.13;4.78;;;;;;;;;;4940641;29;20039;-74
2021/11/10 04:24:54;;;;;;;11.88;4.05;;;;;;;;;;4941189;29;20035;-73
2021/11/10 04:27:20;;;;;;;10.95;5.22;;;;;;;;;;4939982;29;20028;-72
2021/11/10 04:29:47;;;;;;;15.85;5.05;;;;;;;;;;4940803;29;20049;-73
2021/11/10 04:32:13;;;;;;;9.05;5.25;;;;;;;;;;4939637;29;20046;-75
2021/11/10 04:34:39;;;;;;;14.43;4.78;;;;;;;;;;4940612;29;20027;-75
2021/11/10 04:37:06;;;;;;;7.88;4.65;;;;;;;;;;4940048;29;20452;-74
2021/11/10 04:39:32;;;;;;;12.32;4.85;;;;;;;;;;4940397;29;20079;-75
2021/11/10 04:41:59;;;;;;;19.75;5.40;;;;;;;;;;4940467;29;20031;-74
2021/11/10 04:44:25;;;;;;;10.52;4.28;;;;;;;;;;4939755;29;20035;-75
2021/11/10 04:46:53;;;;;;;12.27;4.93;;;;;;;;;;4940017;29;20427;-76
2021/11/10 04:49:19;;;;;;;9.48;4.32;;;;;;;;;;4922780;29;20110;-76
2021/11/10 04:51:45;;;;;;;12.30;5.88;;;;;;;;;;4939738;29;20152;-72
2021/11/10 04:54:18;;;;;;;15.10;4.97;;;;;;;;;;4922879;29;20047;-74
2021/11/10 04:56:44;;;;;;;9.82;4.65;;;;;;;;;;4921277;29;20197;-74
2021/11/10 04:59:10;;;;;;;14.10;6.68;;;;;;;;;;4921182;29;20028;-74
2021/11/10 05:02:02;;;;;;;11.27;5.03;;;;;;;;;;4920421;29;20032;-74
2021/11/10 05:04:29;;;;;;;13.90;5.32;;;;;;;;;;4920310;29;20039;-74
2021/11/10 05:06:55;;;;;;;13.15;5.00;;;;;;;;;;4920253;29;20051;-76
2021/11/10 05:09:21;;;;;;;10.98;5.07;;;;;;;;;;4919750;29;20068;-76
2021/11/10 05:11:47;;;;;;;9.95;4.53;;;;;;;;;;4919768;29;20043;-75
2021/11/10 05:14:13;;;;;;;11.10;5.70;;;;;;;;;;4919076;29;20518;-72
2021/11/10 05:16:39;;;;;;;9.63;4.20;;;;;;;;;;4919535;29;20028;-74
2021/11/10 05:19:05;;;;;;;15.40;5.10;;;;;;;;;;4920022;29;20024;-76
2021/11/10 05:21:32;;;;;;;10.02;5.10;;;;;;;;;;4904097;29;20032;-73
2021/11/10 05:23:58;;;;;;;12.13;5.03;;;;;;;;;;4919917;29;20390;-74
2021/11/10 05:26:24;;;;;;;11.77;5.47;;;;;;;;;;4919425;29;20037;-76
2021/11/10 05:28:50;;;;;;;16.17;6.20;;;;;;;;;;4920554;29;20028;-73
2021/11/10 05:31:16;;;;;;;11.60;5.82;;;;;;;;;;4919684;29;20071;-75
2021/11/10 05:33:42;;;;;;;11.32;5.88;;;;;;;;;;4920164;29;20083;-76
2021/11/10 05:36:08;;;;;;;9.38;5.25;;;;;;;;;;4920467;29;20099;-75
2021/11/10 05:38:34;;;;;;;10.18;5.30;;;;;;;;;;4921098;29;20032;-75
2021/11/10 05:41:01;;;;;;;14.68;5.00;;;;;;;;;;4920726;29;20036;-73
2021/11/10 05:43:27;;;;;;;14.25;5.68;;;;;;;;;;4920170;29;20087;-75
2021/11/10 05:45:53;;;;;;;12.02;5.60;;;;;;;;;;4919718;29;20084;-75
2021/11/10 05:48:19;;;;;;;12.77;5.25;;;;;;;;;;4919843;29;20036;-77
2021/11/10 05:50:46;;;;;;;13.90;5.63;;;;;;;;;;4919847;29;20036;-76
2021/11/10 05:53:13;;;;;;;13.25;5.03;;;;;;;;;;4919505;29;20042;-75
2021/11/10 05:55:40;;;;;;;10.40;5.18;;;;;;;;;;4930878;29;20044;-76
2021/11/10 05:58:07;;;;;;;12.57;5.50;;;;;;;;;;4938759;29;20058;-76
2021/11/10 06:00:33;;;;;;;11.43;5.53;;;;;;;;;;4939339;29;20036;-74
2021/11/10 06:02:59;;;;;;;14.05;5.75;;;;;;;;;;4938385;29;20043;-76
2021/11/10 06:05:26;;;;;;;11.70;5.53;;;;;;;;;;4938578;29;20040;-75
2021/11/10 06:07:52;;;;;;;17.48;6.43;;;;;;;;;;4938431;29;20356;-74
2021/11/10 06:10:19;;;;;;;8.13;4.50;;;;;;;;;;4938093;29;20031;-74
2021/11/10 06:12:46;;;;;;;9.40;4.30;;;;;;;;;;4938851;29;20535;-74
2021/11/10 06:15:13;;;;;;;9.75;4.93;;;;;;;;;;4938857;29;20046;-74
2021/11/10 06:17:39;;;;;;;15.35;5.68;;;;;;;;;;4939196;29;20101;-75
2021/11/10 06:20:06;;;;;;;11.13;5.45;;;;;;;;;;4938184;29;20059;-74
2021/11/10 06:22:32;;;;;;;14.02;5.47;;;;;;;;;;4938835;29;20036;-73
2021/11/10 06:24:58;;;;;;;10.25;5.60;;;;;;;;;;4938818;29;20501;-74
2021/11/10 06:27:25;;;;;;;13.45;6.47;;;;;;;;;;4939132;29;20114;-75
2021/11/10 06:29:51;;;;;;;13.48;6.22;;;;;;;;;;4939106;29;20047;-76
2021/11/10 06:32:17;;;;;;;13.73;6.05;;;;;;;;;;4939835;29;20038;-74
2021/11/10 06:34:43;;;;;;;9.57;5.55;;;;;;;;;;4940341;29;20048;-72
2021/11/10 06:37:09;;;;;;;21.65;5.72;;;;;;;;;;4941563;29;20099;-74
2021/11/10 06:39:35;;;;;;;10.70;5.72;;;;;;;;;;4942536;29;20028;-75
2021/11/10 06:42:02;;;;;;;13.77;6.80;;;;;;;;;;4942576;29;20031;-75
2021/11/10 06:44:28;;;;;;;14.02;5.60;;;;;;;;;;4942664;29;20039;-74
2021/11/10 06:46:54;;;;;;;9.75;5.47;;;;;;;;;;4942415;29;20035;-74
2021/11/10 06:49:20;;;;;;;12.60;6.10;;;;;;;;;;4924683;29;20538;-74
2021/11/10 06:51:46;;;;;;;12.30;6.03;;;;;;;;;;4942031;29;20498;-73
2021/11/10 06:54:13;;;;;;;13.23;6.15;;;;;;;;;;4942479;29;20032;-75
2021/11/10 06:56:39;;;;;;;18.08;7.60;;;;;;;;;;4941978;29;20056;-76
2021/11/10 06:59:05;;;;;;;17.98;7.57;;;;;;;;;;4943734;29;20035;-75
2021/11/10 07:01:32;;;;;;;12.43;5.65;;;;;;;;;;4926952;29;20047;-76
2021/11/10 07:03:58;;;;;;;9.02;5.70;;;;;;;;;;4942740;29;20498;-75
2021/11/10 07:06:24;;;;;;;11.43;5.38;;;;;;;;;;4942285;29;20042;-75
2021/11/10 07:08:50;;;;;;;14.30;5.80;;;;;;;;;;4942388;29;20040;-76
2021/11/10 07:11:16;;;;;;;12.52;5.30;;;;;;;;;;4942955;29;20038;-77
2021/11/10 07:13:42;;;;;;;11.23;5.38;;;;;;;;;;4942585;29;20042;-75
2021/11/10 07:16:09;;;;;;;14.02;5.82;;;;;;;;;;4942886;29;20024;-73
2021/11/10 07:18:35;;;;;;;10.55;5.90;;;;;;;;;;4942516;29;20471;-76
2021/11/10 07:21:01;;;;;;;12.27;5.65;;;;;;;;;;4933228;29;20042;-75
2021/11/10 07:23:27;;;;;;;12.48;5.00;;;;;;;;;;4936992;29;20039;-76
2021/11/10 07:25:53;;;;;;;11.85;4.82;;;;;;;;;;4938462;29;20048;-77
2021/11/10 07:28:19;;;;;;;16.13;5.45;;;;;;;;;;4941769;29;20376;-73
2021/11/10 07:30:45;;;;;;;13.32;5.85;;;;;;;;;;4941288;29;20106;-75
2021/11/10 07:33:11;;;;;;;12.43;5.90;;;;;;;;;;4942537;29;20051;-75
2021/11/10 07:35:37;;;;;;;11.68;4.80;;;;;;;;;;4926633;29;20028;-74
2021/11/10 07:38:04;;;;;;;7.60;5.13;;;;;;;;;;4945012;29;20024;-75
2021/11/10 07:40:30;;;;;;;15.35;5.65;;;;;;;;;;4944663;29;20087;-74
2021/11/10 07:42:57;;;;;;;16.13;5.68;;;;;;;;;;4944177;29;20028;-75
2021/11/10 07:45:41;;;;;;;11.68;5.60;;;;;;;;;;4944001;29;20035;-75
2021/11/10 07:48:09;;;;;;;10.45;4.90;;;;;;;;;;4942464;29;20044;-75
2021/11/10 07:50:36;;;;;;;11.63;5.22;;;;;;;;;;4938434;29;20095;-76
2021/11/10 07:53:03;;;;;;;13.43;5.82;;;;;;;;;;4939358;29;20031;-74
2021/11/10 07:55:29;;;;;;;11.98;5.70;;;;;;;;;;4941109;29;20047;-74
2021/11/10 07:57:56;;;;;;;12.05;5.10;;;;;;;;;;4940753;29;20094;-76
2021/11/10 08:00:23;;;;;;;11.18;5.57;;;;;;;;;;4926085;29;20059;-75
2021/11/10 08:02:49;;;;;;;14.23;6.07;;;;;;;;;;4942202;29;20383;-75
2021/11/10 08:05:16;;;;;;;9.02;5.20;;;;;;;;;;4926750;29;20387;-75
2021/11/10 08:07:43;;;;;;;11.40;5.32;;;;;;;;;;4943388;29;20032;-75
2021/11/10 08:10:10;;;;;;;16.98;5.68;;;;;;;;;;4939171;29;20031;-76
2021/11/10 08:12:36;;;;;;;11.70;5.75;;;;;;;;;;4940268;29;20036;-75
2021/11/10 08:15:06;;;;;;;16.83;6.55;;;;;;;;;;4943090;29;20470;-75
2021/11/10 08:17:35;;;;;;;12.52;5.43;;;;;;;;;;4935639;29;20036;-75
2021/11/10 08:20:01;;;;;;;17.02;5.85;;;;;;;;;;4934740;29;20084;-75
2021/11/10 08:22:28;;;;;;;15.95;5.32;;;;;;;;;;4934417;29;20516;-74
2021/11/10 08:24:54;;;;;;;13.02;5.10;;;;;;;;;;4942142;29;20447;-76
2021/11/10 08:27:30;;;;;;;14.00;5.55;;;;;;;;;;4937577;29;20035;-76
2021/11/10 08:29:56;;;;;;;10.05;5.50;;;;;;;;;;4920672;29;20044;-74
2021/11/10 08:32:22;;;;;;;11.02;6.03;;;;;;;;;;4935673;29;20059;-75
2021/11/10 08:34:48;;;;;;;40.58;7.97;;;;;;;;;;4936684;29;20098;-76
2021/11/10 08:37:14;;;;;;;17.48;7.32;;;;;;;;;;4922997;29;20034;-74
2021/11/10 08:39:40;;;;;;;43.55;7.53;;;;;;;;;;4940423;29;20031;-75
2021/11/10 08:42:09;;;;;;;36.30;9.10;;;;;;;;;;4935513;29;20114;-75
2021/11/10 08:44:40;;;;;;;21.50;6.97;;;;;;;;;;4935828;29;20094;-76
2021/11/10 08:47:13;;;;;;;46.95;7.90;;;;;;;;;;4937642;29;20038;-75
2021/11/10 08:49:39;;;;;;;19.33;7.28;;;;;;;;;;4940741;29;20032;-77
2021/11/10 08:52:06;;;;;;;26.05;8.25;;;;;;;;;;4941186;29;20028;-76
2021/11/10 08:54:32;;;;;;;13.80;6.40;;;;;;;;;;4929642;29;20088;-75
2021/11/10 08:56:59;;;;;;;18.88;6.38;;;;;;;;;;4912253;29;20048;-76
2021/11/10 08:59:25;;;;;;;22.73;9.57;;;;;;;;;;4933432;29;20079;-76
2021/11/10 09:01:52;;;;;;;16.25;6.68;;;;;;;;;;4904015;29;20032;-73
2021/11/10 09:04:25;;;;;;;12.98;6.43;;;;;;;;;;4934325;29;20031;-75
2021/11/10 09:06:51;;;;;;;15.98;6.07;;;;;;;;;;4912724;29;20095;-75
2021/11/10 09:09:18;;;;;;;18.13;6.82;;;;;;;;;;4932075;29;20040;-74
2021/11/10 09:11:50;;;;;;;8.40;4.95;;;;;;;;;;4939481;29;20083;-75
2021/11/10 09:14:17;;;;;;;10.45;5.22;;;;;;;;;;4934198;29;20098;-74
2021/11/10 09:16:44;;;;;;;10.98;5.38;;;;;;;;;;4931950;29;20068;-74
2021/11/10 09:19:10;;;;;;;8.38;5.85;;;;;;;;;;4931330;29;20028;-75
2021/11/10 09:21:37;;;;;;;7.15;4.90;;;;;;;;;;4936272;29;20027;-75
2021/11/10 09:24:03;;;;;;;10.15;4.68;;;;;;;;;;4927671;29;20117;-75
2021/11/10 09:26:29;;;;;;;9.35;5.32;;;;;;;;;;4935131;29;20043;-74
2021/11/10 09:28:56;;;;;;;7.35;5.10;;;;;;;;;;4937449;29;20028;-77
2021/11/10 09:31:22;;;;;;;6.18;5.03;;;;;;;;;;4931979;29;20040;-75
2021/11/10 09:33:56;;;;;;;6.00;4.03;;;;;;;;;;4931959;29;20054;-75
2021/11/10 09:36:22;;;;;;;7.85;4.43;;;;;;;;;;4927831;29;20518;-76
2021/11/10 09:38:49;;;;;;;8.25;4.72;;;;;;;;;;4926625;29;20019;-77
2021/11/10 09:41:15;;;;;;;6.28;4.47;;;;;;;;;;4927058;29;20030;-76
2021/11/10 09:43:42;;;;;;;6.82;4.53;;;;;;;;;;4934721;29;20032;-77
2021/11/10 09:46:09;;;;;;;6.90;4.10;;;;;;;;;;4910979;29;20036;-74
2021/11/10 09:48:36;;;;;;;9.80;5.05;;;;;;;;;;4922748;29;20027;-75
2021/11/10 09:51:03;;;;;;;5.75;4.40;;;;;;;;;;4925183;29;20048;-75
2021/11/10 09:53:29;;;;;;;10.88;4.35;;;;;;;;;;4923603;29;20036;-76
2021/11/10 09:55:55;;;;;;;9.73;4.30;;;;;;;;;;4929113;29;20040;-76
2021/11/10 09:58:22;;;;;;;6.70;4.40;;;;;;;;;;4930099;29;20016;-76
2021/11/10 10:00:52;;;;;;;8.30;4.57;;;;;;;;;;4925959;29;20032;-76
2021/11/10 10:03:19;;;;;;;10.63;4.72;;;;;;;;;;4929032;29;20046;-76
2021/11/10 10:05:45;;;;;;;11.73;4.93;;;;;;;;;;4930100;29;20748;-77
2021/11/10 10:08:11;;;;;;;11.13;5.20;;;;;;;;;;4929678;29;20500;-76
2021/11/10 10:10:39;;;;;;;7.47;4.95;;;;;;;;;;4927123;29;20067;-74
2021/11/10 10:13:06;;;;;;;11.02;4.78;;;;;;;;;;4934086;29;20034;-74
2021/11/10 10:15:33;;;;;;;14.20;4.20;;;;;;;;;;4933603;29;20391;-76
2021/11/10 10:17:59;;;;;;;9.25;5.30;;;;;;;;;;4934308;29;20063;-75
2021/11/10 10:20:27;;;;;;;8.23;4.95;;;;;;;;;;4932343;29;20029;-75
2021/11/10 10:22:55;;;;;;;7.05;4.30;;;;;;;;;;4919169;29;20168;-76
2021/11/10 10:25:21;;;;;;;7.25;4.60;;;;;;;;;;4927806;29;20472;-76
2021/11/10 10:27:55;;;;;;;8.30;5.15;;;;;;;;;;4936900;29;20032;-75
2021/11/10 10:30:32;;;;;;;9.27;4.43;;;;;;;;;;4929006;29;20028;-74
2021/11/10 10:33:00;;;;;;;7.03;4.30;;;;;;;;;;4934073;29;20068;-75
2021/11/10 10:35:40;;;;;;;11.65;5.85;;;;;;;;;;4935932;29;20066;-76
2021/11/10 10:38:08;;;;;;;11.43;4.72;;;;;;;;;;4939612;29;20070;-74
2021/11/10 10:40:35;;;;;;;11.95;5.10;;;;;;;;;;4931468;29;20031;-75
2021/11/10 10:43:02;;;;;;;7.07;5.30;;;;;;;;;;4938702;29;20047;-75
2021/11/10 10:45:31;;;;;;;7.55;5.50;;;;;;;;;;4936822;29;20060;-75
2021/11/10 10:48:14;;;;;;;9.80;4.78;;;;;;;;;;4937688;29;20028;-76
2021/11/10 10:50:42;;;;;;;8.20;4.10;;;;;;;;;;4935709;29;20031;-75
2021/11/10 10:53:09;;;;;;;10.00;5.50;;;;;;;;;;4931344;29;20035;-76
2021/11/10 10:55:37;;;;;;;10.35;4.70;;;;;;;;;;4917860;29;20617;-77
2021/11/10 10:58:08;;;;;;;7.43;4.30;;;;;;;;;;4929225;29;20032;-75
2021/11/10 11:00:36;;;;;;;10.68;4.20;;;;;;;;;;4936447;29;20030;-75
2021/11/10 11:03:23;;;;;;;8.90;4.28;;;;;;;;;;4937775;29;20028;-77
2021/11/10 11:05:49;;;;;;;10.52;4.68;;;;;;;;;;4923356;29;20056;-76
2021/11/10 11:08:25;;;;;;;8.02;4.63;;;;;;;;;;4935339;29;20030;-76
2021/11/10 11:10:52;;;;;;;10.52;3.88;;;;;;;;;;4915707;29;20035;-77
2021/11/10 11:13:23;;;;;;;12.70;3.92;;;;;;;;;;4928310;29;20032;-76
2021/11/10 11:16:04;;;;;;;8.48;4.18;;;;;;;;;;4917837;29;20024;-76
2021/11/10 11:18:41;;;;;;;6.32;4.22;;;;;;;;;;4944968;29;20032;-77
2021/11/10 11:21:27;;;;;;;7.28;4.80;;;;;;;;;;4939652;29;20070;-75
2021/11/10 11:23:56;;;;;;;6.93;4.05;;;;;;;;;;4911106;29;20478;-77
2021/11/10 11:26:31;;;;;;;10.35;4.45;;;;;;;;;;4935298;29;20067;-76
2021/11/10 11:29:00;;;;;;;9.57;3.63;;;;;;;;;;4935800;29;20106;-76
2021/11/10 11:31:35;;;;;;;8.00;3.20;;;;;;;;;;4922876;29;20040;-76
2021/11/10 11:34:04;;;;;;;10.32;3.42;;;;;;;;;;4935626;29;20030;-75
2021/11/10 11:37:03;;;;;;;8.35;3.83;;;;;;;;;;4934845;29;20020;-75
2021/11/10 11:39:30;;;;;;;10.77;3.33;;;;;;;;;;4888350;29;20044;-76
2021/11/10 11:41:56;;;;;;;5.43;3.53;;;;;;;;;;4935684;29;20032;-75
2021/11/10 11:44:24;;;;;;;11.90;4.35;;;;;;;;;;4918992;29;20677;-76
2021/11/10 11:46:50;;;;;;;12.32;3.53;;;;;;;;;;4935253;29;20032;-78
2021/11/10 11:49:16;;;;;;;6.15;3.05;;;;;;;;;;4918810;29;20123;-79
2021/11/10 11:51:44;;;;;;;5.32;3.05;;;;;;;;;;4938746;29;20071;-79
2021/11/10 11:54:10;;;;;;;7.18;3.10;;;;;;;;;;4922914;29;20028;-77
2021/11/10 11:56:37;;;;;;;12.32;4.03;;;;;;;;;;4933993;29;20048;-76
2021/11/10 11:59:04;;;;;;;9.27;3.97;;;;;;;;;;4933915;29;20038;-76
2021/11/10 12:01:31;;;;;;;7.65;3.40;;;;;;;;;;4933417;29;20074;-76
2021/11/10 12:03:58;;;;;;;6.70;4.40;;;;;;;;;;4933064;29;20035;-77
2021/11/10 12:06:25;;;;;;;5.80;2.90;;;;;;;;;;4934948;29;20034;-76
2021/11/10 12:08:52;;;;;;;6.03;2.50;;;;;;;;;;4931702;29;20086;-76
2021/11/10 12:11:37;;;;;;;6.63;2.67;;;;;;;;;;4930557;29;20031;-75
2021/11/10 12:14:17;;;;;;;10.13;3.40;;;;;;;;;;4927724;29;20095;-76
2021/11/10 12:17:00;;;;;;;5.00;2.53;;;;;;;;;;4933567;29;20040;-76
2021/11/10 12:19:28;;;;;;;10.43;3.80;;;;;;;;;;4932870;29;20059;-75
2021/11/10 12:21:54;;;;;;;6.25;2.67;;;;;;;;;;4934686;29;20035;-76
2021/11/10 12:24:22;;;;;;;11.90;3.35;;;;;;;;;;4933334;29;20435;-74
2021/11/10 12:27:03;;;;;;;8.88;3.30;;;;;;;;;;4932494;29;20043;-74
2021/11/10 12:29:49;;;;;;;4.88;2.88;;;;;;;;;;4931297;29;20036;-75
2021/11/10 12:32:16;;;;;;;8.75;3.90;;;;;;;;;;4908760;29;20055;-77
2021/11/10 12:34:46;;;;;;;5.80;3.33;;;;;;;;;;4933941;29;20107;-75
2021/11/10 12:37:20;;;;;;;7.82;2.53;;;;;;;;;;4933285;29;20059;-75
2021/11/10 12:39:47;;;;;;;5.97;3.13;;;;;;;;;;4915338;29;20023;-75
2021/11/10 12:42:17;;;;;;;8.07;3.08;;;;;;;;;;4918263;29;20111;-75
2021/11/10 12:44:51;;;;;;;7.47;2.25;;;;;;;;;;4926503;29;20106;-75
2021/11/10 12:47:37;;;;;;;5.13;2.80;;;;;;;;;;4936136;29;20063;-75
2021/11/10 12:50:23;;;;;;;6.38;2.72;;;;;;;;;;4930672;29;20383;-75
2021/11/10 12:52:49;;;;;;;8.95;2.80;;;;;;;;;;4932810;29;20027;-75
2021/11/10 12:55:17;;;;;;;5.57;2.58;;;;;;;;;;4931410;29;20569;-78
2021/11/10 12:57:43;;;;;;;12.48;3.60;;;;;;;;;;4932945;29;20027;-75
2021/11/10 13:00:21;;;;;;;9.85;3.13;;;;;;;;;;4921528;29;20036;-73
2021/11/10 13:02:50;;;;;;;9.40;2.80;;;;;;;;;;4932883;29;20037;-77
2021/11/10 13:05:20;;;;;;;7.63;2.75;;;;;;;;;;4917579;29;20054;-74
2021/11/10 13:07:54;;;;;;;5.85;2.78;;;;;;;;;;4911813;29;20036;-72
2021/11/10 13:10:21;;;;;;;6.13;2.78;;;;;;;;;;4930053;29;20035;-76
2021/11/10 13:12:47;;;;;;;8.48;3.10;;;;;;;;;;4926699;29;20095;-75
2021/11/10 13:15:20;;;;;;;8.48;3.40;;;;;;;;;;4931855;29;20047;-75
2021/11/10 13:17:46;;;;;;;8.50;3.10;;;;;;;;;;4932473;29;20118;-76
2021/11/10 13:20:14;;;;;;;8.68;4.03;;;;;;;;;;4933380;29;20039;-74
2021/11/10 13:22:41;;;;;;;13.75;5.22;;;;;;;;;;4932465;29;20422;-73
2021/11/10 13:25:08;;;;;;;8.73;3.17;;;;;;;;;;4932462;29;20066;-75
2021/11/10 13:27:41;;;;;;;11.68;4.03;;;;;;;;;;4931674;29;20055;-74
2021/11/10 13:30:09;;;;;;;10.30;4.50;;;;;;;;;;4932799;29;20054;-74
2021/11/10 13:32:43;;;;;;;6.82;4.38;;;;;;;;;;4931936;29;20066;-74
2021/11/10 13:35:09;;;;;;;6.45;3.55;;;;;;;;;;4911803;29;20063;-76
2021/11/10 13:37:39;;;;;;;6.40;2.80;;;;;;;;;;4930504;29;20028;-75
2021/11/10 13:40:12;;;;;;;6.53;3.10;;;;;;;;;;4938180;29;20023;-76
2021/11/10 13:42:41;;;;;;;10.65;3.67;;;;;;;;;;4916960;29;20035;-74
2021/11/10 13:45:20;;;;;;;5.95;2.90;;;;;;;;;;4924774;29;20545;-74
2021/11/10 13:48:08;;;;;;;7.82;3.10;;;;;;;;;;4935504;29;20039;-75
2021/11/10 13:50:40;;;;;;;8.85;3.10;;;;;;;;;;4925894;29;20028;-75
2021/11/10 13:53:09;;;;;;;9.52;2.95;;;;;;;;;;4918871;29;20458;-76
2021/11/10 13:55:37;;;;;;;9.07;2.63;;;;;;;;;;4937234;29;20110;-76
2021/11/10 13:58:07;;;;;;;12.60;3.45;;;;;;;;;;4937491;29;20485;-76
2021/11/10 14:00:34;;;;;;;9.73;2.40;;;;;;;;;;4935182;29;20027;-75
2021/11/10 14:03:03;;;;;;;5.75;2.45;;;;;;;;;;4938358;29;20058;-74
2021/11/10 14:05:29;;;;;;;4.95;2.60;;;;;;;;;;4918966;29;20047;-76
2021/11/10 14:07:55;;;;;;;8.05;3.60;;;;;;;;;;4911737;29;20071;-75
2021/11/10 14:10:26;;;;;;;5.55;2.65;;;;;;;;;;4934853;29;20038;-74
2021/11/10 14:12:56;;;;;;;9.25;3.58;;;;;;;;;;4928916;29;20040;-74
2021/11/10 14:15:33;;;;;;;4.03;2.30;;;;;;;;;;4926562;29;20637;-75
2021/11/10 14:18:11;;;;;;;6.35;2.45;;;;;;;;;;4933363;29;20028;-75
2021/11/10 14:20:50;;;;;;;7.63;2.58;;;;;;;;;;4938093;29;20782;-74
2021/11/10 14:23:25;;;;;;;5.78;2.38;;;;;;;;;;4921977;29;20070;-75
2021/11/10 14:25:54;;;;;;;7.22;2.50;;;;;;;;;;4937934;29;20039;-75
2021/11/10 14:28:22;;;;;;;6.50;2.10;;;;;;;;;;4934462;29;20064;-75
2021/11/10 14:30:50;;;;;;;5.28;2.88;;;;;;;;;;4937209;29;20024;-74
2021/11/10 14:33:18;;;;;;;6.25;2.45;;;;;;;;;;4934679;29;20036;-74
2021/11/10 14:35:52;;;;;;;8.85;2.80;;;;;;;;;;4935886;29;20028;-75
2021/11/10 14:38:21;;;;;;;6.82;2.83;;;;;;;;;;4920011;29;20032;-75
2021/11/10 14:40:49;;;;;;;7.32;2.95;;;;;;;;;;4935051;29;20024;-75